Avoca, Texas
Current Conditions -  °F | °C
As of 3:52 AM on Thursday 23 Oct 2014 (Local Time) from KABI Reporting Station
Overcast Overcast  
Wind Chill: 62°   Ceiling: 5500
Heat Index: 62°   Visibility: 10mi
Dew Point: 56°   Wind: 6mph
Humidity: 80%   Direction: 160°SSE
Pressure: 30.12"   Gusts: NA
Location:  32.87°N, 99.72°W
Report Text: KABI 230852Z 16005KT 10SM OVC055 17/13 A3012 RMK AO2 SLP181 T01670133 50003
Loading
Personal Weather Stations






























Interactive Weather Map New forecast layout! Learn more

10-Day Weather Forecast

Advertisements
Track Severe Weather on mobile